Latest Weather Forecast - Tuesday 3rd December 2019 (12Noon)

Forecast Period:  12:00 Noon Tuesday 3rd December  2019 to 6:00 pm Tuesday 3rd December  2019
Synopsis: A surface to mid-level ridge pattern will be the dominant feature
Forecast: Fair to partly cloudy with brief isolated showers

Weather 
Advisory/Warning:

None

Winds: E - ESE at 25 - 40 km/h (16 - 25 mph)
Sea Conditions:

Moderate in open water, with northerly swells from 1.5m to 2.5m

Marine 
Advisory/Warning:

Small craft operators and sea bathers should exercise caution

Upcoming Tides:
High: **** ****
Low: **** 6:20 pm

Aviation WX

[Source: ADDS]
METAR
TVSA 020500Z 0206/0306 08012KT 9999 SCT020 TAF
TVSA 020500Z 0206/0306 08012KT 9999 SCT020 =
SR / SS: 09:42 / 22:35 UTC (Sunrise Sunset 2020-07-02)